Waynesville, Ohio
Current Conditions -  °F | °C
As of 2:53 PM on Thursday 18 Dec 2014 (Local Time) from KMGY Reporting Station
Overcast Overcast  
Wind Chill: 23°   Ceiling: 2100
Heat Index: 28°   Visibility: 10mi
Dew Point: 20°   Wind: 5mph
Humidity: 72%   Direction: 340°NNW
Pressure: 30.2"   Gusts: NA
Location:  39.53°N, 84.09°W
Report Text: KMGY 181953Z AUTO 34004KT 10SM OVC021 M02/M07 A3020 RMK AO2 SLP237 T10221067
Loading
Personal Weather Stations






























Interactive Weather Map New forecast layout! Learn more

10-Day Weather Forecast

Advertisements
Track Severe Weather on mobile